createdAt,value
2022-10-01T00:02:10.294Z,99455.09
2022-10-01T00:04:40.304Z,99460.22
2022-10-01T00:07:15.407Z,99453.44
2022-10-01T00:09:44.524Z,99454.31
2022-10-01T00:12:16.203Z,99451.72
2022-10-01T00:14:45.319Z,99448.28
2022-10-01T00:17:15.275Z,99448.28
2022-10-01T00:19:43.935Z,99433.81
2022-10-01T00:22:12.568Z,99438.97
2022-10-01T00:24:41.305Z,99442.41
2022-10-01T00:27:11.599Z,99439.00
2022-10-01T00:29:44.675Z,99447.47
2022-10-01T00:32:15.774Z,99447.47
2022-10-01T00:34:45.238Z,99443.22
2022-10-01T00:37:14.060Z,99444.88
2022-10-01T00:39:42.783Z,99448.28
2022-10-01T00:42:19.604Z,99443.09
2022-10-01T00:44:49.674Z,99443.16
2022-10-01T00:47:30.673Z,99448.19
2022-10-01T00:50:07.268Z,99440.47
2022-10-01T00:52:39.425Z,99436.22
2022-10-01T00:55:12.045Z,99439.63
2022-10-01T00:57:42.893Z,99434.50
2022-10-01T01:00:13.678Z,99437.94
2022-10-01T01:02:44.331Z,99434.50
2022-10-01T01:05:13.835Z,99435.34
2022-10-01T01:07:46.276Z,99431.06
2022-10-01T01:10:18.039Z,99429.31
2022-10-01T01:13:10.769Z,99435.28
2022-10-01T01:15:45.421Z,99419.06
2022-10-01T01:18:24.243Z,99419.06
2022-10-01T01:21:18.405Z,99422.50
2022-10-01T01:24:15.728Z,99420.81
2022-10-01T01:27:00.028Z,99420.81
2022-10-01T01:29:37.146Z,99416.53
2022-10-01T01:32:14.958Z,99415.69
2022-10-01T01:34:48.708Z,99413.13
2022-10-01T01:37:21.019Z,99407.13
2022-10-01T01:39:54.247Z,99405.44
2022-10-01T01:42:28.071Z,99410.56
2022-10-01T01:45:01.972Z,99410.56
2022-10-01T01:47:34.486Z,99400.28
2022-10-01T01:50:07.881Z,99407.13
2022-10-01T01:52:37.065Z,99402.84
2022-10-01T01:55:08.954Z,99399.47
2022-10-01T01:57:42.366Z,99401.22
2022-10-01T02:00:14.558Z,99395.22
2022-10-01T02:02:49.256Z,99393.53
2022-10-01T02:05:23.326Z,99402.09
2022-10-01T02:08:12.879Z,99408.06
2022-10-01T02:11:00.254Z,99408.91
2022-10-01T02:13:41.527Z,99402.91
2022-10-01T02:16:23.846Z,99408.03
2022-10-01T02:19:00.599Z,99408.91
2022-10-01T02:21:34.671Z,99412.31
2022-10-01T02:24:10.404Z,99402.03
2022-10-01T02:26:40.695Z,99405.47
2022-10-01T02:29:14.147Z,99401.25
2022-10-01T02:31:46.009Z,99403.84
2022-10-01T02:34:20.269Z,99420.03
2022-10-01T02:36:51.036Z,99414.03
2022-10-01T02:39:22.206Z,99407.22
2022-10-01T02:41:53.161Z,99405.59
2022-10-01T02:44:24.978Z,99415.78
2022-10-01T02:47:02.354Z,99408.19
2022-10-01T02:49:33.979Z,99411.53
2022-10-01T02:52:10.825Z,99413.22
2022-10-01T02:54:46.878Z,99411.53
2022-10-01T02:57:27.654Z,99413.19
2022-10-01T03:00:00.357Z,99407.22
2022-10-01T03:02:33.313Z,99408.06
2022-10-01T03:05:02.279Z,99406.31
2022-10-01T03:07:34.847Z,99410.56
2022-10-01T03:10:04.029Z,99409.72
2022-10-01T03:12:33.246Z,99411.44
2022-10-01T03:15:02.955Z,99407.16
2022-10-01T03:17:33.245Z,99407.13
2022-10-01T03:20:02.227Z,99405.44
2022-10-01T03:22:30.816Z,99399.47
2022-10-01T03:24:59.593Z,99402.03
2022-10-01T03:27:28.256Z,99407.16
2022-10-01T03:29:56.917Z,99408.88
2022-10-01T03:32:25.525Z,99400.28
2022-10-01T03:34:55.794Z,99397.72
2022-10-01T03:37:24.437Z,99395.16
2022-10-01T03:39:52.974Z,99392.59
2022-10-01T03:42:21.638Z,99393.50
2022-10-01T03:44:50.308Z,99396.03
2022-10-01T03:47:19.087Z,99387.47
2022-10-01T03:49:47.687Z,99390.91
2022-10-01T03:52:18.114Z,99391.75
2022-10-01T03:54:46.904Z,99385.78
2022-10-01T03:57:15.584Z,99385.72
2022-10-01T03:59:44.334Z,99371.25
2022-10-01T04:02:13.092Z,99369.53
2022-10-01T04:04:42.074Z,99372.09
2022-10-01T04:07:10.649Z,99373.00
2022-10-01T04:09:40.788Z,99369.56
2022-10-01T04:12:09.776Z,99366.16
2022-10-01T04:14:38.487Z,99357.59
2022-10-01T04:17:07.073Z,99349.16
2022-10-01T04:19:35.854Z,99368.63
2022-10-01T04:22:04.456Z,99374.63
2022-10-01T04:24:33.442Z,99379.69
2022-10-01T04:27:03.838Z,99371.13
2022-10-01T04:29:34.739Z,99361.75
2022-10-01T04:32:07.288Z,99354.88
2022-10-01T04:34:45.986Z,99357.50
2022-10-01T04:37:14.675Z,99359.25
2022-10-01T04:39:43.205Z,99375.44
2022-10-01T04:42:14.324Z,99364.25
2022-10-01T04:44:43.113Z,99369.38
2022-10-01T04:47:11.655Z,99364.25
2022-10-01T04:49:41.041Z,99359.97
2022-10-01T04:52:09.655Z,99362.56
2022-10-01T04:54:38.381Z,99374.56
2022-10-01T04:57:07.305Z,99360.09
2022-10-01T04:59:37.369Z,99365.13
2022-10-01T05:02:06.025Z,99352.31
2022-10-01T05:04:34.628Z,99362.53
2022-10-01T05:07:03.375Z,99353.09
2022-10-01T05:09:31.957Z,99357.44
2022-10-01T05:12:01.748Z,99355.75
2022-10-01T05:14:30.448Z,99350.72
2022-10-01T05:17:00.499Z,99360.00
2022-10-01T05:19:30.815Z,99354.00
2022-10-01T05:21:59.763Z,99359.97
2022-10-01T05:24:29.412Z,99353.09
2022-10-01T05:26:58.118Z,99355.66
2022-10-01T05:29:26.724Z,99362.44
2022-10-01T05:31:55.464Z,99362.44
2022-10-01T05:34:25.595Z,99365.91
2022-10-01T05:36:54.240Z,99374.41
2022-10-01T05:39:22.895Z,99368.47
2022-10-01T05:41:51.468Z,99383.84
2022-10-01T05:44:19.954Z,99375.25
2022-10-01T05:46:48.606Z,99384.63
2022-10-01T05:49:17.978Z,99382.06
2022-10-01T05:51:48.136Z,99380.38
2022-10-01T05:54:19.893Z,99382.91
2022-10-01T05:56:48.446Z,99379.50
2022-10-01T05:59:16.945Z,99372.66
2022-10-01T06:01:46.708Z,99380.31
2022-10-01T06:04:15.055Z,99371.75
2022-10-01T06:06:43.630Z,99379.41
2022-10-01T06:09:13.694Z,99375.13
2022-10-01T06:11:42.265Z,99375.13
2022-10-01T06:14:10.977Z,99381.06
2022-10-01T06:16:39.956Z,99385.31
2022-10-01T06:19:08.769Z,99374.25
2022-10-01T06:21:37.737Z,99382.66
2022-10-01T06:24:06.934Z,99382.59
2022-10-01T06:26:37.826Z,99384.28
2022-10-01T06:29:06.445Z,99385.09
2022-10-01T06:31:35.407Z,99382.53
2022-10-01T06:34:04.186Z,99359.63
2022-10-01T06:36:32.694Z,99369.78
2022-10-01T06:39:01.343Z,99368.03
2022-10-01T06:41:29.846Z,99362.91
2022-10-01T06:43:59.780Z,99360.31
2022-10-01T06:46:29.505Z,99348.31
2022-10-01T06:48:58.104Z,99348.22
2022-10-01T06:51:40.484Z,99349.00
2022-10-01T06:54:09.315Z,99347.22
2022-10-01T06:56:37.837Z,99354.06
2022-10-01T06:59:08.024Z,99351.47
2022-10-01T07:01:37.408Z,99348.13
2022-10-01T07:04:06.454Z,99349.75
2022-10-01T07:06:35.216Z,99354.88
2022-10-01T07:09:03.999Z,99346.31
2022-10-01T07:11:32.882Z,99358.28
2022-10-01T07:14:01.767Z,99350.59
2022-10-01T07:16:31.777Z,99346.31
2022-10-01T07:19:00.599Z,99345.47
2022-10-01T07:21:29.099Z,99338.59
2022-10-01T07:23:57.769Z,99338.56
2022-10-01T07:26:26.407Z,99329.97
2022-10-01T07:28:55.423Z,99329.06
2022-10-01T07:31:24.675Z,99323.94
2022-10-01T07:33:59.958Z,99322.22
2022-10-01T07:36:28.616Z,99317.94
2022-10-01T07:38:57.248Z,99325.56
2022-10-01T07:41:26.011Z,99318.66
2022-10-01T07:43:54.589Z,99313.53
2022-10-01T07:46:23.358Z,99310.09
2022-10-01T07:48:52.008Z,99317.72
2022-10-01T07:51:22.069Z,99315.09
2022-10-01T07:53:51.127Z,99318.50
2022-10-01T07:56:20.068Z,99325.34
2022-10-01T07:58:48.986Z,99319.28
2022-10-01T08:01:18.191Z,99322.72
2022-10-01T08:03:50.533Z,99322.72
2022-10-01T08:06:24.606Z,99316.69
2022-10-01T08:08:55.967Z,99318.44
2022-10-01T08:11:24.928Z,99324.41
2022-10-01T08:13:56.159Z,99325.25
2022-10-01T08:16:29.363Z,99328.69
2022-10-01T08:18:58.146Z,99326.97
2022-10-01T08:21:26.879Z,99325.25
2022-10-01T08:23:56.952Z,99326.84
2022-10-01T08:26:25.817Z,99328.56
2022-10-01T08:28:54.379Z,99326.00
2022-10-01T08:31:23.342Z,99327.63
2022-10-01T08:33:52.239Z,99325.03
2022-10-01T08:36:21.202Z,99316.47
2022-10-01T08:38:50.428Z,99318.13
2022-10-01T08:41:31.758Z,99316.38
2022-10-01T08:44:02.938Z,99316.31
2022-10-01T08:46:36.408Z,99311.19
2022-10-01T08:49:13.418Z,99316.38
2022-10-01T08:51:49.039Z,99321.50
2022-10-01T08:54:29.227Z,99318.88
2022-10-01T08:57:02.650Z,99317.13
2022-10-01T08:59:43.945Z,99311.16
2022-10-01T09:02:20.947Z,99316.22
2022-10-01T09:04:56.703Z,99315.31
2022-10-01T09:07:44.241Z,99314.38
2022-10-01T09:10:29.303Z,99321.22
2022-10-01T09:13:25.577Z,99308.41
2022-10-01T09:16:03.215Z,99321.25
2022-10-01T09:18:48.602Z,99318.69
2022-10-01T09:21:21.259Z,99319.63
2022-10-01T09:24:04.660Z,99316.16
2022-10-01T09:26:35.381Z,99312.72
2022-10-01T09:29:14.142Z,99297.44
2022-10-01T09:31:47.600Z,99310.97
2022-10-01T09:34:18.141Z,99304.06
2022-10-01T09:36:58.397Z,99300.63
2022-10-01T09:39:33.912Z,99301.44
2022-10-01T09:42:02.638Z,99307.38
2022-10-01T09:44:35.539Z,99303.94
2022-10-01T09:47:04.291Z,99309.06
2022-10-01T09:49:36.672Z,99309.94
2022-10-01T09:52:11.907Z,99303.94
2022-10-01T09:54:46.297Z,99307.31
2022-10-01T09:57:24.387Z,99310.75
2022-10-01T10:00:02.898Z,99315.88
2022-10-01T10:02:39.346Z,99303.94
2022-10-01T10:05:11.629Z,99311.69
2022-10-01T10:07:45.629Z,99302.28
2022-10-01T10:10:25.801Z,99304.84
2022-10-01T10:13:01.170Z,99302.22
2022-10-01T10:15:33.422Z,99293.66
2022-10-01T10:18:10.311Z,99286.66
2022-10-01T10:20:41.920Z,99294.38
2022-10-01T10:23:15.473Z,99289.16
2022-10-01T10:25:44.813Z,99283.16
2022-10-01T10:28:24.032Z,99284.84
2022-10-01T10:30:57.056Z,99289.06
2022-10-01T10:33:27.716Z,99279.63
2022-10-01T10:36:03.803Z,99281.34
2022-10-01T10:38:35.335Z,99273.59
2022-10-01T10:41:06.509Z,99257.38
2022-10-01T10:43:38.431Z,99270.16
2022-10-01T10:46:10.864Z,99272.72
2022-10-01T10:48:44.792Z,99253.16
2022-10-01T10:51:13.674Z,99259.03
2022-10-01T10:53:45.663Z,99254.78
2022-10-01T10:56:23.242Z,99260.78
2022-10-01T10:58:54.253Z,99250.50
2022-10-01T11:01:29.827Z,99236.13
2022-10-01T11:04:01.765Z,99240.13
2022-10-01T11:06:30.647Z,99240.19
2022-10-01T11:09:05.236Z,99228.19
2022-10-01T11:11:51.575Z,99234.19
2022-10-01T11:14:30.581Z,99230.84
2022-10-01T11:17:21.203Z,99214.53
2022-10-01T11:20:04.220Z,99214.53
2022-10-01T11:22:47.683Z,99215.28
2022-10-01T11:25:27.101Z,99211.75
2022-10-01T11:28:05.063Z,99210.94
2022-10-01T11:30:42.701Z,99214.31
2022-10-01T11:33:30.171Z,99201.47
2022-10-01T11:36:04.722Z,99198.91
2022-10-01T11:38:54.344Z,99194.56
2022-10-01T11:41:33.838Z,99193.59
2022-10-01T11:44:09.561Z,99196.88
2022-10-01T11:46:48.996Z,99187.50
2022-10-01T11:49:30.724Z,99186.53
2022-10-01T11:52:09.904Z,99179.63
2022-10-01T11:54:53.132Z,99171.75
2022-10-01T11:57:35.883Z,99169.00
2022-10-01T12:00:09.054Z,99162.09
2022-10-01T12:02:52.030Z,99161.22
2022-10-01T12:05:26.469Z,99163.78
2022-10-01T12:08:07.274Z,99151.94
2022-10-01T12:10:42.113Z,99151.66
2022-10-01T12:13:23.003Z,99143.97
2022-10-01T12:15:57.713Z,99153.38
2022-10-01T12:18:32.330Z,99147.41
2022-10-01T12:21:08.180Z,99143.03
2022-10-01T12:23:51.904Z,99138.75
2022-10-01T12:26:30.553Z,99137.91
2022-10-01T12:29:12.313Z,99134.59
2022-10-01T12:31:50.973Z,99129.47
2022-10-01T12:34:30.361Z,99134.53
2022-10-01T12:37:12.952Z,99127.75
2022-10-01T12:39:57.895Z,99129.31
2022-10-01T12:42:44.103Z,99127.47
2022-10-01T12:45:29.433Z,99126.41
2022-10-01T12:48:08.813Z,99130.66
2022-10-01T12:50:48.651Z,99115.97
2022-10-01T12:53:33.779Z,99111.50
2022-10-01T12:56:17.690Z,99121.59
2022-10-01T12:59:07.610Z,99126.53
2022-10-01T13:01:52.993Z,99113.59
2022-10-01T13:04:43.883Z,99116.09
2022-10-01T13:07:36.862Z,99112.50
2022-10-01T13:10:23.212Z,99112.59
2022-10-01T13:13:02.061Z,99100.72
2022-10-01T13:15:35.371Z,99108.31
2022-10-01T13:18:14.774Z,99111.72
2022-10-01T13:20:54.487Z,99112.50
2022-10-01T13:23:31.031Z,99122.88
2022-10-01T13:26:07.082Z,99115.34
2022-10-01T13:28:58.250Z,99117.16
2022-10-01T13:31:39.460Z,99124.94
2022-10-01T13:34:30.232Z,99114.72
2022-10-01T13:36:58.795Z,99118.19
2022-10-01T13:39:38.950Z,99115.59
2022-10-01T13:42:19.976Z,99114.81
2022-10-01T13:44:58.523Z,99105.38
2022-10-01T13:47:28.065Z,99106.28
2022-10-01T13:50:01.174Z,99101.13
2022-10-01T13:52:30.473Z,99104.56
2022-10-01T13:55:01.099Z,99099.53
2022-10-01T13:57:36.555Z,99101.22
2022-10-01T14:00:23.157Z,99097.72
2022-10-01T14:03:06.037Z,99104.53
2022-10-01T14:05:40.797Z,99097.72
2022-10-01T14:08:19.335Z,99099.44
2022-10-01T14:11:03.893Z,99102.91
2022-10-01T14:13:47.174Z,99102.00
2022-10-01T14:16:17.947Z,99104.63
2022-10-01T14:18:50.866Z,99097.13
2022-10-01T14:21:33.693Z,99099.53
2022-10-01T14:24:12.853Z,99099.53
2022-10-01T14:26:52.884Z,99104.69
2022-10-01T14:29:43.391Z,99094.41
2022-10-01T14:32:24.915Z,99089.25
2022-10-01T14:35:07.346Z,99072.31
2022-10-01T14:37:39.835Z,99092.69
2022-10-01T14:40:18.362Z,99096.06
2022-10-01T14:42:59.374Z,99104.69
2022-10-01T14:45:30.414Z,99099.63
2022-10-01T14:48:03.755Z,99111.50
2022-10-01T14:50:37.421Z,99107.19
2022-10-01T14:53:08.935Z,99100.34
2022-10-01T14:55:37.701Z,99101.22
2022-10-01T14:58:06.502Z,99096.16
2022-10-01T15:00:36.726Z,99100.47
2022-10-01T15:03:13.495Z,99096.16
2022-10-01T15:05:42.316Z,99096.25
2022-10-01T15:08:16.984Z,99097.13
2022-10-01T15:10:49.424Z,99092.06
2022-10-01T15:13:25.972Z,99095.56
2022-10-01T15:15:57.299Z,99092.19
2022-10-01T15:18:27.351Z,99090.50
2022-10-01T15:21:02.846Z,99087.06
2022-10-01T15:23:33.508Z,99086.34
2022-10-01T15:26:05.222Z,99084.63
2022-10-01T15:28:36.971Z,99091.56
2022-10-01T15:31:09.076Z,99086.50
2022-10-01T15:33:40.602Z,99093.50
2022-10-01T15:36:14.360Z,99097.81
2022-10-01T15:38:45.565Z,99096.13
2022-10-01T15:41:31.933Z,99093.69
2022-10-01T15:44:04.800Z,99097.97
2022-10-01T15:46:36.136Z,99103.97
2022-10-01T15:49:20.235Z,99103.88
2022-10-01T15:52:05.398Z,99104.75
2022-10-01T15:54:34.715Z,99105.66
2022-10-01T15:57:06.765Z,99104.75
2022-10-01T15:59:37.388Z,99106.53
2022-10-01T16:02:16.801Z,99103.09
2022-10-01T16:04:46.020Z,99112.53
2022-10-01T16:07:20.955Z,99106.59
2022-10-01T16:09:53.508Z,99111.81
2022-10-01T16:12:23.258Z,99110.94
2022-10-01T16:15:02.107Z,99114.50
2022-10-01T16:17:35.095Z,99114.50
2022-10-01T16:20:35.248Z,99108.59
2022-10-01T16:23:25.847Z,99102.72
2022-10-01T16:25:54.607Z,99099.31
2022-10-01T16:28:29.503Z,99103.66
2022-10-01T16:30:58.558Z,99104.59
2022-10-01T16:33:28.716Z,99100.34
2022-10-01T16:36:11.127Z,99104.72
2022-10-01T16:38:39.857Z,99116.84
2022-10-01T16:41:08.435Z,99112.66
2022-10-01T16:43:38.724Z,99106.00
2022-10-01T16:46:07.608Z,99120.63
2022-10-01T16:48:37.939Z,99119.03
2022-10-01T16:51:07.315Z,99103.84
2022-10-01T16:53:35.975Z,99123.44
2022-10-01T16:56:05.217Z,99120.88
2022-10-01T16:58:33.895Z,99115.81
2022-10-01T17:01:08.074Z,99104.78
2022-10-01T17:03:38.194Z,99124.38
2022-10-01T17:06:07.163Z,99107.44
2022-10-01T17:08:35.820Z,99110.00
2022-10-01T17:11:06.329Z,99104.88
2022-10-01T17:13:37.545Z,99118.56
2022-10-01T17:16:07.498Z,99123.69
2022-10-01T17:18:40.267Z,99127.09
2022-10-01T17:21:10.886Z,99128.78
2022-10-01T17:23:39.598Z,99131.34
2022-10-01T17:26:09.570Z,99121.16
2022-10-01T17:28:38.329Z,99131.44
2022-10-01T17:31:08.950Z,99124.59
2022-10-01T17:33:39.448Z,99128.03
2022-10-01T17:36:10.661Z,99125.59
2022-10-01T17:38:40.663Z,99129.91
2022-10-01T17:41:09.319Z,99125.66
2022-10-01T17:43:39.565Z,99132.50
2022-10-01T17:46:08.453Z,99136.91
2022-10-01T17:48:38.664Z,99128.41
2022-10-01T17:51:09.490Z,99128.38
2022-10-01T17:53:42.607Z,99137.72
2022-10-01T17:56:15.860Z,99142.00
2022-10-01T17:58:45.815Z,99144.56
2022-10-01T18:01:17.412Z,99142.00
2022-10-01T18:03:47.618Z,99136.03
2022-10-01T18:06:16.562Z,99143.75
2022-10-01T18:08:55.228Z,99147.97
2022-10-01T18:11:26.521Z,99136.91
2022-10-01T18:13:55.468Z,99141.19
2022-10-01T18:16:24.864Z,99144.63
2022-10-01T18:21:47.989Z,99136.91
2022-10-01T18:24:17.373Z,99138.63
2022-10-01T18:26:46.938Z,99144.66
2022-10-01T18:29:20.069Z,99143.88
2022-10-01T18:31:53.400Z,99145.63
2022-10-01T18:34:31.600Z,99150.00
2022-10-01T18:37:07.042Z,99144.09
2022-10-01T18:39:42.591Z,99143.41
2022-10-01T18:42:19.655Z,99144.38
2022-10-01T18:44:53.538Z,99150.44
2022-10-01T18:47:32.907Z,99153.16
2022-10-01T18:50:17.349Z,99155.03
2022-10-01T18:52:56.522Z,99153.38
2022-10-01T18:55:42.040Z,99163.69
2022-10-01T18:58:29.203Z,99162.03
2022-10-01T19:01:09.056Z,99165.50
2022-10-01T19:04:18.060Z,99163.84
2022-10-01T19:07:03.040Z,99163.84
2022-10-01T19:09:43.797Z,99157.81
2022-10-01T19:12:37.308Z,99161.28
2022-10-01T19:15:18.530Z,99168.22
2022-10-01T19:17:58.871Z,99165.66
2022-10-01T19:20:45.805Z,99180.25
2022-10-01T19:23:31.447Z,99181.22
2022-10-01T19:26:08.351Z,99172.72
2022-10-01T19:28:56.591Z,99192.41
2022-10-01T19:31:35.180Z,99186.44
2022-10-01T19:34:11.091Z,99182.19
2022-10-01T19:36:45.458Z,99189.09
2022-10-01T19:39:24.029Z,99194.31
2022-10-01T19:41:58.731Z,99201.25
2022-10-01T19:44:34.131Z,99203.84
2022-10-01T19:47:16.068Z,99202.34
2022-10-01T19:49:49.039Z,99200.88
2022-10-01T19:52:19.331Z,99215.56
2022-10-01T19:54:55.457Z,99218.31
2022-10-01T19:57:26.559Z,99211.78
2022-10-01T19:59:57.471Z,99211.97
2022-10-01T20:02:35.481Z,99220.66
2022-10-01T20:05:09.040Z,99229.38
2022-10-01T20:07:47.576Z,99221.78
2022-10-01T20:10:26.992Z,99231.13
2022-10-01T20:13:10.461Z,99224.38
2022-10-01T20:15:48.491Z,99236.38
2022-10-01T20:18:28.301Z,99235.44
2022-10-01T20:21:10.985Z,99227.72
2022-10-01T20:23:48.231Z,99225.16
2022-10-01T20:26:32.547Z,99224.19
2022-10-01T20:29:17.503Z,99227.66
2022-10-01T20:31:53.034Z,99227.59
2022-10-01T20:34:30.592Z,99225.00
2022-10-01T20:37:11.694Z,99225.78
2022-10-01T20:39:47.104Z,99236.00
2022-10-01T20:42:24.102Z,99229.16
2022-10-01T20:44:54.424Z,99239.38
2022-10-01T20:47:29.603Z,99231.75
2022-10-01T20:50:09.402Z,99238.47
2022-10-01T20:52:47.387Z,99234.19
2022-10-01T20:55:19.947Z,99232.50
2022-10-01T20:57:53.523Z,99224.81
2022-10-01T21:00:24.653Z,99234.19
2022-10-01T21:02:58.623Z,99230.78
2022-10-01T21:05:31.893Z,99223.97
2022-10-01T21:08:04.601Z,99227.41
2022-10-01T21:10:42.714Z,99232.53
2022-10-01T21:13:20.755Z,99231.69
2022-10-01T21:16:03.099Z,99235.19
2022-10-01T21:18:44.733Z,99236.09
2022-10-01T21:21:24.540Z,99239.56
2022-10-01T21:24:08.386Z,99249.78
2022-10-01T21:26:48.003Z,99243.84
2022-10-01T21:29:24.562Z,99252.44
2022-10-01T21:32:08.784Z,99253.34
2022-10-01T21:34:50.904Z,99250.81
2022-10-01T21:37:28.984Z,99258.47
2022-10-01T21:40:05.759Z,99257.63
2022-10-01T21:42:49.522Z,99261.84
2022-10-01T21:45:26.530Z,99278.09
2022-10-01T21:48:11.592Z,99273.78
2022-10-01T21:50:51.653Z,99278.91
2022-10-01T21:53:40.833Z,99283.16
2022-10-01T21:56:25.361Z,99278.88
2022-10-01T21:59:06.785Z,99278.75
2022-10-01T22:01:55.103Z,99275.28
2022-10-01T22:04:33.465Z,99281.13
2022-10-01T22:07:11.714Z,99280.22
2022-10-01T22:09:44.882Z,99290.41
2022-10-01T22:12:15.070Z,99287.00
2022-10-01T22:14:46.547Z,99286.88
2022-10-01T22:17:21.630Z,99288.53
2022-10-01T22:19:54.483Z,99292.66
2022-10-01T22:22:27.133Z,99295.22
2022-10-01T22:24:58.553Z,99296.94
2022-10-01T22:27:33.457Z,99298.69
2022-10-01T22:30:10.721Z,99302.06
2022-10-01T22:32:47.593Z,99303.84
2022-10-01T22:35:22.003Z,99303.00
2022-10-01T22:37:55.172Z,99306.41
2022-10-01T22:40:28.581Z,99314.09
2022-10-01T22:43:02.757Z,99313.19
2022-10-01T22:45:46.630Z,99314.03
2022-10-01T22:48:35.992Z,99324.28
2022-10-01T22:51:16.524Z,99326.81
2022-10-01T22:54:03.571Z,99329.22
2022-10-01T22:56:40.744Z,99341.09
2022-10-01T22:59:26.934Z,99327.44
2022-10-01T23:02:05.749Z,99334.22
2022-10-01T23:04:49.326Z,99333.41
2022-10-01T23:07:26.173Z,99331.72
2022-10-01T23:10:02.094Z,99337.72
2022-10-01T23:12:39.995Z,99337.72
2022-10-01T23:15:22.133Z,99327.47
2022-10-01T23:18:03.119Z,99335.97
2022-10-01T23:20:37.728Z,99335.97
2022-10-01T23:23:31.254Z,99341.06
2022-10-01T23:26:23.035Z,99340.16
2022-10-01T23:29:04.370Z,99358.06
2022-10-01T23:31:38.301Z,99357.19
2022-10-01T23:34:24.130Z,99354.63
2022-10-01T23:37:06.347Z,99357.25
2022-10-01T23:39:51.556Z,99369.13
2022-10-01T23:42:36.232Z,99374.28
2022-10-01T23:45:23.575Z,99373.47
2022-10-01T23:48:00.018Z,99376.06
2022-10-01T23:50:34.362Z,99376.97
2022-10-01T23:53:14.474Z,99367.66
2022-10-01T23:56:08.012Z,99368.56
2022-10-01T23:58:44.962Z,99357.59
